createdAt,value
2023-05-03T01:34:44.877Z,50.875198
2023-05-03T01:35:44.859Z,50.874870
2023-05-03T01:36:44.852Z,50.875210
2023-05-03T01:37:44.845Z,50.875359
2023-05-03T01:38:44.831Z,50.875233
2023-05-03T01:39:44.856Z,50.875233
2023-05-03T01:40:44.815Z,50.875317
2023-05-03T01:41:44.804Z,50.875278
2023-05-03T01:42:44.794Z,50.875278
2023-05-03T01:43:44.783Z,50.875526
2023-05-03T01:44:44.785Z,50.875526
2023-05-03T01:45:44.772Z,50.875290
2023-05-03T01:46:44.753Z,50.875198
2023-05-03T01:47:44.770Z,50.875340
2023-05-03T01:48:44.746Z,50.875618
2023-05-03T01:49:44.756Z,50.875149
2023-05-03T01:50:44.751Z,50.875298
2023-05-03T01:51:44.704Z,50.875351
2023-05-03T01:52:44.692Z,50.875114
2023-05-03T01:53:44.681Z,50.876362
2023-05-03T01:54:44.709Z,50.876362
2023-05-03T01:55:44.702Z,50.876362
2023-05-03T01:56:44.663Z,50.876362
2023-05-03T01:57:44.650Z,50.875443
2023-05-03T01:58:44.647Z,50.875404
2023-05-03T01:59:44.661Z,50.875366
2023-05-03T02:00:44.641Z,50.875237
2023-05-03T02:01:44.676Z,50.875347
2023-05-03T02:02:44.626Z,50.875275
2023-05-03T02:03:45.619Z,50.874798
2023-05-03T02:04:44.607Z,50.875122
2023-05-03T02:05:44.584Z,50.875408
2023-05-03T02:06:44.635Z,50.875332
2023-05-03T02:07:44.553Z,50.875301
2023-05-03T02:08:44.543Z,50.875294
2023-05-03T02:09:44.538Z,50.875313
2023-05-03T02:10:44.516Z,50.875366
2023-05-03T02:11:44.514Z,50.875393
2023-05-03T02:12:44.503Z,50.875355
2023-05-03T02:13:44.492Z,50.875446
2023-05-03T02:14:44.488Z,50.875462
2023-05-03T02:15:44.470Z,50.875397
2023-05-03T02:16:44.507Z,50.875488
2023-05-03T02:17:44.475Z,50.875343
2023-05-03T02:18:44.443Z,50.874912
2023-05-03T02:19:44.456Z,50.875278
2023-05-03T02:20:44.433Z,50.874947
2023-05-03T02:21:44.408Z,50.874855
2023-05-03T02:22:44.398Z,50.875023
2023-05-03T02:23:44.402Z,50.875340
2023-05-03T02:24:44.409Z,50.875507
2023-05-03T02:25:44.382Z,50.875469
2023-05-03T02:26:44.378Z,50.875488
2023-05-03T02:27:44.354Z,50.875488
2023-05-03T02:28:44.346Z,50.875565
2023-05-03T02:29:44.348Z,50.875515
2023-05-03T02:30:44.375Z,50.875748
2023-05-03T02:31:44.318Z,50.875847
2023-05-03T02:32:44.351Z,50.875549
2023-05-03T02:33:44.295Z,50.875484
2023-05-03T02:34:44.299Z,50.875340
2023-05-03T02:35:44.287Z,50.875340
2023-05-03T02:36:44.263Z,50.875565
2023-05-03T02:37:44.259Z,50.875568
2023-05-03T02:38:44.255Z,50.875629
2023-05-03T02:39:44.253Z,50.875416
2023-05-03T02:40:44.248Z,50.875454
2023-05-03T02:41:44.229Z,50.875305
2023-05-03T02:42:44.218Z,50.875130
2023-05-03T02:43:44.195Z,50.875294
2023-05-03T02:44:44.217Z,50.875462
2023-05-03T02:45:44.189Z,50.875435
2023-05-03T02:46:44.203Z,50.875420
2023-05-03T02:47:44.204Z,50.875336
2023-05-03T02:48:44.161Z,50.875633
2023-05-03T02:49:44.168Z,50.875633
2023-05-03T02:50:44.136Z,50.875633
2023-05-03T02:51:44.128Z,50.875633
2023-05-03T02:52:44.124Z,50.875633
2023-05-03T02:53:44.116Z,50.875633
2023-05-03T02:54:44.114Z,50.875633
2023-05-03T02:55:44.093Z,50.875633
2023-05-03T02:56:44.079Z,50.875633
2023-05-03T02:57:44.068Z,50.875633
2023-05-03T02:58:44.071Z,50.875633
2023-05-03T02:59:44.060Z,50.875633
2023-05-03T03:00:44.048Z,50.875633
2023-05-03T03:01:44.106Z,50.875633
2023-05-03T03:02:44.168Z,50.875633
2023-05-03T03:03:44.101Z,50.875633
2023-05-03T03:04:44.025Z,50.875633
2023-05-03T03:05:43.990Z,50.875633
2023-05-03T03:06:44.014Z,50.875633
2023-05-03T03:07:44.987Z,50.875633
2023-05-03T03:08:43.967Z,50.875633
2023-05-03T03:09:43.955Z,50.875633
2023-05-03T03:10:43.961Z,50.875633
2023-05-03T03:11:43.933Z,50.875633
2023-05-03T03:12:43.943Z,50.875633
2023-05-03T03:13:43.922Z,50.875633
2023-05-03T03:14:43.912Z,50.875633
2023-05-03T03:15:43.935Z,50.875633
2023-05-03T03:16:43.887Z,50.875633
2023-05-03T03:17:43.953Z,50.875633
2023-05-03T03:18:43.867Z,50.875633
2023-05-03T03:19:43.865Z,50.875633
2023-05-03T03:20:43.872Z,50.875633
2023-05-03T03:21:43.839Z,50.875633
2023-05-03T03:22:43.842Z,50.875633
2023-05-03T03:23:43.821Z,50.875633
2023-05-03T03:24:43.809Z,50.875633
2023-05-03T03:25:43.795Z,50.875633
2023-05-03T03:26:43.789Z,50.875633
2023-05-03T03:27:43.787Z,50.875633
2023-05-03T03:28:43.774Z,50.875633
2023-05-03T03:29:43.761Z,50.875633
2023-05-03T03:30:43.773Z,50.875633
2023-05-03T03:31:43.791Z,50.875633
2023-05-03T03:32:43.832Z,50.875633
2023-05-03T03:33:43.717Z,50.875633
2023-05-03T03:34:43.742Z,50.875633
2023-05-03T03:35:43.704Z,50.875633
2023-05-03T03:36:43.699Z,50.875633
2023-05-03T03:37:43.690Z,50.875633
2023-05-03T03:38:43.682Z,50.875633
2023-05-03T03:39:43.663Z,50.875633
2023-05-03T03:40:43.669Z,50.875633
2023-05-03T03:41:43.644Z,50.875633
2023-05-03T03:42:43.643Z,50.875633
2023-05-03T03:43:43.622Z,50.875633
2023-05-03T03:44:43.650Z,50.875633
2023-05-03T03:45:43.607Z,50.875633
2023-05-03T03:46:43.679Z,50.875633
2023-05-03T03:47:43.612Z,50.875633
2023-05-03T03:48:43.575Z,50.875633
2023-05-03T03:49:43.591Z,50.875633
2023-05-03T03:50:43.563Z,50.875633
2023-05-03T03:51:43.556Z,50.875633
2023-05-03T03:52:43.549Z,50.875633
2023-05-03T03:53:43.551Z,50.875633
2023-05-03T03:54:43.537Z,50.875633
2023-05-03T03:55:43.514Z,50.875633
2023-05-03T03:56:43.538Z,50.875633
2023-05-03T03:57:43.496Z,50.875633
2023-05-03T03:58:43.500Z,50.875633
2023-05-03T03:59:43.496Z,50.875633
2023-05-03T04:00:43.478Z,50.875633
2023-05-03T04:01:43.494Z,50.875633
2023-05-03T04:02:43.529Z,50.875633
2023-05-03T04:03:43.553Z,50.875633
2023-05-03T04:04:43.445Z,50.875633
2023-05-03T04:05:43.418Z,50.875633
2023-05-03T04:06:43.464Z,50.875633
2023-05-03T04:07:43.424Z,50.875633
2023-05-03T04:08:43.417Z,50.875633
2023-05-03T04:09:43.411Z,50.875633
2023-05-03T04:10:43.382Z,50.875633
2023-05-03T04:11:43.369Z,50.875633
2023-05-03T04:12:43.352Z,50.875633
2023-05-03T04:13:43.362Z,50.875633
2023-05-03T04:14:43.345Z,50.875633
2023-05-03T04:15:43.344Z,50.875633
2023-05-03T04:16:43.368Z,50.875633
2023-05-03T04:17:43.360Z,50.875633
2023-05-03T04:18:43.299Z,50.875633
2023-05-03T04:19:43.281Z,50.875633
2023-05-03T04:20:43.301Z,50.875633
2023-05-03T04:21:43.271Z,50.875633
2023-05-03T04:22:43.260Z,50.875633
2023-05-03T04:23:43.241Z,50.875633
2023-05-03T04:24:43.231Z,50.875633
2023-05-03T04:25:43.241Z,50.875633
2023-05-03T04:26:43.213Z,50.875633
2023-05-03T04:27:43.216Z,50.875633
2023-05-03T04:28:43.207Z,50.875633
2023-05-03T04:29:43.197Z,50.875633
2023-05-03T04:30:43.248Z,50.875633
2023-05-03T04:31:43.169Z,50.875633
2023-05-03T04:32:43.217Z,50.875633
2023-05-03T04:33:43.147Z,50.875633
2023-05-03T04:34:43.138Z,50.875633
2023-05-03T04:35:43.142Z,50.875633
2023-05-03T04:36:43.112Z,50.875633
2023-05-03T04:37:43.108Z,50.875633
2023-05-03T04:38:43.116Z,50.875633
2023-05-03T04:39:43.092Z,50.875633
2023-05-03T04:40:43.095Z,50.875633
2023-05-03T04:41:43.086Z,50.875633
2023-05-03T04:42:43.069Z,50.875633
2023-05-03T04:43:43.070Z,50.875633
2023-05-03T04:44:43.055Z,50.875633
2023-05-03T04:45:43.031Z,50.875633
2023-05-03T04:46:43.054Z,50.875633
2023-05-03T04:47:43.077Z,50.875633
2023-05-03T04:48:43.004Z,50.875633
2023-05-03T04:49:42.983Z,50.875633
2023-05-03T04:50:42.990Z,50.875633
2023-05-03T04:51:42.983Z,50.875633
2023-05-03T04:52:42.967Z,50.875633
2023-05-03T04:53:42.956Z,50.875633
2023-05-03T04:54:42.951Z,50.875633
2023-05-03T04:55:42.961Z,50.875633
2023-05-03T04:56:43.002Z,50.875633
2023-05-03T04:57:42.930Z,50.875633
2023-05-03T04:58:42.914Z,50.875633
2023-05-03T04:59:42.891Z,50.875633
2023-05-03T05:00:42.877Z,50.875633
2023-05-03T05:01:42.981Z,50.875633
2023-05-03T05:02:42.889Z,50.875633
2023-05-03T05:03:42.965Z,50.875633
2023-05-03T05:04:42.840Z,50.875633
2023-05-03T05:05:42.832Z,50.875633
2023-05-03T05:06:42.829Z,50.875633
2023-05-03T05:07:42.887Z,50.875633
2023-05-03T05:08:42.791Z,50.875633
2023-05-03T05:09:42.786Z,50.875633
2023-05-03T05:10:42.789Z,50.875633
2023-05-03T05:11:42.762Z,50.875633
2023-05-03T05:12:42.751Z,50.875633
2023-05-03T05:13:42.750Z,50.875633
2023-05-03T05:14:42.742Z,50.875633
2023-05-03T05:15:42.729Z,50.875633
2023-05-03T05:16:42.774Z,50.875633
2023-05-03T05:17:42.784Z,50.875633
2023-05-03T05:18:42.684Z,50.875633
2023-05-03T05:19:42.690Z,50.875633
2023-05-03T05:20:42.673Z,50.875633
2023-05-03T05:21:42.674Z,50.875633
2023-05-03T05:22:42.642Z,50.875633
2023-05-03T05:23:42.728Z,50.875633
2023-05-03T05:24:42.631Z,50.875633
2023-05-03T05:25:42.633Z,50.875633
2023-05-03T05:26:42.626Z,50.875633
2023-05-03T05:27:42.607Z,50.875633
2023-05-03T05:28:42.597Z,50.875633
2023-05-03T05:29:42.598Z,50.875633
2023-05-03T05:30:42.572Z,50.875633
2023-05-03T05:31:42.602Z,50.875633
2023-05-03T05:32:42.601Z,50.875633
2023-05-03T05:33:42.532Z,50.875633
2023-05-03T05:34:45.557Z,50.875633
2023-05-03T05:35:43.528Z,50.875633
2023-05-03T05:36:42.536Z,50.875633
2023-05-03T05:37:42.491Z,50.875633
2023-05-03T05:38:42.491Z,50.875633
2023-05-03T05:39:42.556Z,50.875633
2023-05-03T05:40:42.485Z,50.875633
2023-05-03T05:41:42.545Z,50.875633
2023-05-03T05:42:42.478Z,50.875633
2023-05-03T05:43:42.455Z,50.875633
2023-05-03T05:44:42.452Z,50.875633
2023-05-03T05:45:42.476Z,50.875633
2023-05-03T05:46:42.496Z,50.875633
2023-05-03T05:47:42.453Z,50.875633
2023-05-03T05:48:42.419Z,50.875633
2023-05-03T05:49:42.403Z,50.875633
2023-05-03T05:50:42.380Z,50.875633
2023-05-03T05:51:42.409Z,50.875633
2023-05-03T05:52:42.380Z,50.875633
2023-05-03T05:53:42.356Z,50.875633
2023-05-03T05:54:42.347Z,50.875633
2023-05-03T05:55:42.352Z,50.875633
2023-05-03T05:56:42.332Z,50.875633
2023-05-03T05:57:42.344Z,50.875633
2023-05-03T05:58:42.322Z,50.875633
2023-05-03T05:59:42.318Z,50.875633
2023-05-03T06:00:42.283Z,50.875633
2023-05-03T06:01:42.294Z,50.875633
2023-05-03T06:02:42.417Z,50.875633
2023-05-03T06:03:42.249Z,50.875633
2023-05-03T06:04:42.292Z,50.875633
2023-05-03T06:05:42.551Z,50.875633
2023-05-03T06:06:42.251Z,50.875633
2023-05-03T06:07:42.195Z,50.875633
2023-05-03T06:08:42.186Z,50.875633
2023-05-03T06:09:42.208Z,50.875633
2023-05-03T06:10:42.288Z,50.875633
2023-05-03T06:11:42.173Z,50.875633
2023-05-03T06:12:42.161Z,50.875633
2023-05-03T06:13:42.157Z,50.875633
2023-05-03T06:14:48.963Z,50.875633
2023-05-03T06:15:44.207Z,50.875633
2023-05-03T06:16:42.187Z,50.875633
2023-05-03T06:17:42.245Z,50.875633
2023-05-03T06:18:42.201Z,50.875633
2023-05-03T06:19:44.412Z,50.875633
2023-05-03T06:20:42.148Z,50.875633
2023-05-03T06:21:42.112Z,50.875633
2023-05-03T06:22:42.125Z,50.875633
2023-05-03T06:23:42.083Z,50.875633
2023-05-03T06:24:42.116Z,50.875633
2023-05-03T06:25:42.078Z,50.875633
2023-05-03T06:26:42.098Z,50.875633
2023-05-03T06:27:42.075Z,50.875633
2023-05-03T06:28:42.062Z,50.875633
2023-05-03T06:29:42.029Z,50.875633
2023-05-03T06:30:42.144Z,50.875633
2023-05-03T06:31:42.101Z,50.875633
2023-05-03T06:32:42.061Z,50.875633
2023-05-03T06:33:42.022Z,50.875633
2023-05-03T06:34:41.991Z,50.875633
2023-05-03T06:35:41.955Z,50.875633
2023-05-03T06:36:41.997Z,50.875633
2023-05-03T06:37:41.919Z,50.875633
2023-05-03T06:38:41.924Z,50.875633
2023-05-03T06:39:41.943Z,50.875633
2023-05-03T06:40:41.949Z,50.875633
2023-05-03T06:41:41.914Z,50.875633
2023-05-03T06:42:41.845Z,50.875633
2023-05-03T06:43:41.949Z,50.875633
2023-05-03T06:44:41.829Z,50.875633
2023-05-03T06:45:41.828Z,50.875633
2023-05-03T06:46:41.846Z,50.875633
2023-05-03T06:47:41.838Z,50.875633
2023-05-03T06:48:41.842Z,50.875633
2023-05-03T06:49:41.768Z,50.875633
2023-05-03T06:50:41.763Z,50.875633
2023-05-03T06:51:41.773Z,50.875633
2023-05-03T06:52:41.735Z,50.875633
2023-05-03T06:53:41.731Z,50.875633
2023-05-03T06:54:41.741Z,50.875633
2023-05-03T06:55:41.720Z,50.875633
2023-05-03T06:56:41.711Z,50.875633
2023-05-03T06:57:41.749Z,50.875633
2023-05-03T06:58:41.703Z,50.875633
2023-05-03T06:59:42.620Z,50.875633
2023-05-03T07:00:41.686Z,50.875633
2023-05-03T07:01:41.757Z,50.875633
2023-05-03T07:02:41.780Z,50.875633
2023-05-03T07:03:42.097Z,50.875633
2023-05-03T07:04:42.652Z,50.875633
2023-05-03T07:05:41.670Z,50.875633
2023-05-03T07:06:55.394Z,50.875633
2023-05-03T07:07:43.628Z,50.875633
2023-05-03T07:08:41.626Z,50.875633
2023-05-03T07:09:43.501Z,50.875633
2023-05-03T07:10:42.591Z,50.875633
2023-05-03T07:11:41.604Z,50.875633
2023-05-03T07:12:41.618Z,50.875633
2023-05-03T07:13:41.573Z,50.875633
2023-05-03T07:14:41.590Z,50.875633
2023-05-03T07:15:41.632Z,50.875633
2023-05-03T07:16:41.571Z,50.875633
2023-05-03T07:17:41.586Z,50.875633
2023-05-03T07:18:42.563Z,50.875633
2023-05-03T07:19:41.530Z,50.875633
2023-05-03T07:20:41.517Z,50.875633
2023-05-03T07:21:41.495Z,50.875633
2023-05-03T07:22:41.509Z,50.875633
2023-05-03T07:23:41.489Z,50.875633
2023-05-03T07:24:41.484Z,50.875633
2023-05-03T07:25:41.450Z,50.875633
2023-05-03T07:26:43.642Z,50.875633
2023-05-03T07:27:41.463Z,50.875633
2023-05-03T07:28:41.454Z,50.875633
2023-05-03T07:29:41.530Z,50.875633
2023-05-03T07:30:41.390Z,50.875633
2023-05-03T07:31:41.715Z,50.875633
2023-05-03T07:32:41.467Z,50.875633
2023-05-03T07:33:41.489Z,50.875633
2023-05-03T07:34:41.344Z,50.875633
2023-05-03T07:35:41.346Z,50.875633
2023-05-03T07:36:41.421Z,50.875633
2023-05-03T07:37:41.340Z,50.875633
2023-05-03T07:38:41.356Z,50.875633
2023-05-03T07:39:41.331Z,50.875633
2023-05-03T07:40:41.305Z,50.875633
2023-05-03T07:41:41.326Z,50.875633
2023-05-03T07:42:41.274Z,50.875633
2023-05-03T07:43:41.525Z,50.875633
2023-05-03T07:44:41.291Z,50.875633
2023-05-03T07:45:41.322Z,50.875633
2023-05-03T07:46:41.269Z,50.875633
2023-05-03T07:47:41.287Z,50.875633
2023-05-03T07:48:42.708Z,50.875633
2023-05-03T07:49:41.242Z,50.875633
2023-05-03T07:50:41.235Z,50.875633
2023-05-03T07:51:41.215Z,50.875633
2023-05-03T07:52:41.198Z,50.875633
2023-05-03T07:53:41.178Z,50.875633
2023-05-03T07:54:41.178Z,50.875633
2023-05-03T07:55:41.185Z,50.875633
2023-05-03T07:56:41.142Z,50.875633
2023-05-03T07:57:41.170Z,50.875633
2023-05-03T07:58:42.460Z,50.875633
2023-05-03T07:59:42.125Z,50.875633
2023-05-03T08:00:41.130Z,50.875633
2023-05-03T08:01:41.119Z,50.875633
2023-05-03T08:02:41.281Z,50.875633
2023-05-03T08:03:41.327Z,50.875633
2023-05-03T08:04:41.334Z,50.875633
2023-05-03T08:05:41.141Z,50.875633
2023-05-03T08:06:41.158Z,50.875633
2023-05-03T08:07:41.056Z,50.875633
2023-05-03T08:08:41.014Z,50.875633
2023-05-03T08:09:41.030Z,50.875633
2023-05-03T08:10:41.046Z,50.875633
2023-05-03T08:11:43.767Z,50.875633
2023-05-03T08:12:41.026Z,50.875633
2023-05-03T08:13:40.990Z,50.875633
2023-05-03T08:14:40.961Z,50.875633
2023-05-03T08:15:41.005Z,50.875633
2023-05-03T08:16:41.014Z,50.875633
2023-05-03T08:17:40.965Z,50.875633
2023-05-03T08:18:40.944Z,50.875633
2023-05-03T08:19:41.125Z,50.875633
2023-05-03T08:20:40.921Z,50.875633
2023-05-03T08:21:40.911Z,50.875633
2023-05-03T08:22:40.872Z,50.875633
2023-05-03T08:23:40.887Z,50.875633
2023-05-03T08:24:40.867Z,50.875633
2023-05-03T08:25:40.861Z,50.875633
2023-05-03T08:26:41.916Z,50.875633
2023-05-03T08:27:40.859Z,50.875633
2023-05-03T08:28:40.820Z,50.875633
2023-05-03T08:29:40.817Z,50.875633
2023-05-03T08:30:40.831Z,50.875633
2023-05-03T08:31:40.835Z,50.875633
2023-05-03T08:32:41.741Z,50.875633
2023-05-03T08:33:40.804Z,50.875633
2023-05-03T08:34:40.797Z,50.875633
2023-05-03T08:35:40.808Z,50.875633
2023-05-03T08:36:40.770Z,50.875633
2023-05-03T08:37:40.837Z,50.875633
2023-05-03T08:38:40.781Z,50.875633
2023-05-03T08:39:40.708Z,50.875633
2023-05-03T08:40:40.717Z,50.875633
2023-05-03T08:41:40.706Z,50.875633
2023-05-03T08:42:40.739Z,50.875633
2023-05-03T08:43:40.714Z,50.875633
2023-05-03T08:44:40.670Z,50.875633
2023-05-03T08:45:40.711Z,50.875633
2023-05-03T08:46:40.695Z,50.875633
2023-05-03T08:47:40.680Z,50.875633
2023-05-03T08:48:40.616Z,50.875633
2023-05-03T08:49:40.661Z,50.875633
2023-05-03T08:50:40.616Z,50.875633
2023-05-03T08:51:40.629Z,50.875633
2023-05-03T08:52:40.730Z,50.875633
2023-05-03T08:53:40.557Z,50.875633
2023-05-03T08:54:40.555Z,50.875633
2023-05-03T08:55:40.584Z,50.875633
2023-05-03T08:56:40.563Z,50.875633
2023-05-03T08:57:40.624Z,50.875633
2023-05-03T08:58:40.557Z,50.875633
2023-05-03T08:59:40.533Z,50.875633
2023-05-03T09:00:40.508Z,50.875633
2023-05-03T09:01:40.593Z,50.875633
2023-05-03T09:02:40.624Z,50.875633
2023-05-03T09:03:40.554Z,50.875633
2023-05-03T09:04:40.474Z,50.875633
2023-05-03T09:05:40.477Z,50.875633
2023-05-03T09:06:40.486Z,50.875633
2023-05-03T09:07:40.448Z,50.875633
2023-05-03T09:08:40.393Z,50.875633
2023-05-03T09:09:40.445Z,50.875633
2023-05-03T09:10:40.459Z,50.875633
2023-05-03T09:11:40.424Z,50.875633
2023-05-03T09:12:40.461Z,50.875633
2023-05-03T09:13:40.385Z,50.875633
2023-05-03T09:14:40.514Z,50.875633
2023-05-03T09:15:40.386Z,50.875633
2023-05-03T09:16:40.410Z,50.875633
2023-05-03T09:17:40.396Z,50.875633
2023-05-03T09:18:40.323Z,50.875633
2023-05-03T09:19:40.344Z,50.875633
2023-05-03T09:20:40.367Z,50.875633
2023-05-03T09:21:40.305Z,50.875633
2023-05-03T09:22:40.290Z,50.875633
2023-05-03T09:23:40.379Z,50.875301
2023-05-03T09:24:40.301Z,50.875298
2023-05-03T09:25:40.249Z,50.875389
2023-05-03T09:26:40.361Z,50.875343
2023-05-03T09:27:40.250Z,50.875340
2023-05-03T09:28:41.243Z,50.875320
2023-05-03T09:29:40.221Z,50.875439
2023-05-03T09:30:40.246Z,50.875313
2023-05-03T09:31:40.240Z,50.875175
2023-05-03T09:32:40.208Z,50.875317
2023-05-03T09:33:40.195Z,50.875229
2023-05-03T09:34:40.225Z,50.875153
2023-05-03T09:35:40.158Z,50.875278
2023-05-03T09:36:40.184Z,50.875355
2023-05-03T09:37:40.171Z,50.875473
2023-05-03T09:38:40.146Z,50.875332
2023-05-03T09:39:40.166Z,50.875393
2023-05-03T09:40:40.138Z,50.875256
2023-05-03T09:41:40.102Z,50.875351
2023-05-03T09:42:40.110Z,50.875324
2023-05-03T09:43:40.092Z,50.875290
2023-05-03T09:44:40.097Z,50.875271
2023-05-03T09:45:40.097Z,50.875595
2023-05-03T09:46:40.048Z,50.875484
2023-05-03T09:47:40.132Z,50.875175
2023-05-03T09:48:40.038Z,50.875439
2023-05-03T09:49:40.069Z,50.875298
2023-05-03T09:50:40.074Z,50.875420
2023-05-03T09:51:40.031Z,50.875290
2023-05-03T09:52:39.983Z,50.875282
2023-05-03T09:53:39.990Z,50.875271
2023-05-03T09:54:39.959Z,50.875267
2023-05-03T09:55:39.983Z,50.875278
2023-05-03T09:56:39.981Z,50.875263
2023-05-03T09:57:39.930Z,50.875233
2023-05-03T09:58:39.981Z,50.875263
2023-05-03T09:59:40.057Z,50.875351
2023-05-03T10:00:39.901Z,50.875313
2023-05-03T10:01:39.982Z,50.875313
2023-05-03T10:02:40.023Z,50.875324
2023-05-03T10:03:39.958Z,50.875282
2023-05-03T10:04:39.914Z,50.875431
2023-05-03T10:05:39.858Z,50.875450
2023-05-03T10:06:39.909Z,50.875378
2023-05-03T10:07:39.855Z,50.875324
2023-05-03T10:08:39.843Z,50.875347
2023-05-03T10:09:39.817Z,50.875252
2023-05-03T10:10:39.824Z,50.875397
2023-05-03T10:11:39.775Z,50.875603
2023-05-03T10:12:39.820Z,50.875801
2023-05-03T10:13:39.764Z,50.875420
2023-05-03T10:14:39.800Z,50.875389
2023-05-03T10:15:39.837Z,50.875336
2023-05-03T10:16:39.793Z,50.875465
2023-05-03T10:18:40.742Z,50.875290
2023-05-03T10:19:39.830Z,50.875439
2023-05-03T10:20:39.731Z,50.875481
2023-05-03T10:21:39.673Z,50.875469
2023-05-03T10:22:39.713Z,50.875706
2023-05-03T10:23:39.680Z,50.875389
2023-05-03T10:24:39.679Z,50.875389
2023-05-03T10:25:39.649Z,50.875301
2023-05-03T10:26:39.634Z,50.875801
2023-05-03T10:27:39.654Z,50.875408
2023-05-03T10:28:39.649Z,50.875401
2023-05-03T10:29:39.607Z,50.875282
2023-05-03T10:30:39.591Z,50.875370
2023-05-03T10:31:39.631Z,50.875439
2023-05-03T10:32:39.649Z,50.875435
2023-05-03T10:33:39.550Z,50.875393
2023-05-03T10:34:39.527Z,50.875347
2023-05-03T10:35:39.538Z,50.875347
2023-05-03T10:36:48.948Z,50.874592
2023-05-03T10:37:41.557Z,50.874580
2023-05-03T10:38:45.611Z,50.875412
2023-05-03T10:39:40.516Z,50.875324
2023-05-03T10:40:39.496Z,50.875328
2023-05-03T10:41:39.452Z,50.875332
2023-05-03T10:42:39.458Z,50.875244
2023-05-03T10:43:39.437Z,50.874748
2023-05-03T10:44:39.448Z,50.875217
2023-05-03T10:45:39.422Z,50.875500
2023-05-03T10:46:39.446Z,50.875320
2023-05-03T10:47:39.429Z,50.875378
2023-05-03T10:48:39.428Z,50.875336
2023-05-03T10:49:39.367Z,50.875397
2023-05-03T10:50:39.442Z,50.875507
2023-05-03T10:51:39.402Z,50.875511
2023-05-03T10:52:39.417Z,50.875546
2023-05-03T10:53:39.399Z,50.875446
2023-05-03T10:54:39.356Z,50.875397
2023-05-03T10:55:39.343Z,50.875320
2023-05-03T10:56:39.349Z,50.875355
2023-05-03T10:57:40.337Z,50.875317
2023-05-03T10:58:40.361Z,50.875294
2023-05-03T10:59:39.395Z,50.875343
2023-05-03T11:00:39.330Z,50.875290
2023-05-03T11:01:39.337Z,50.875164
2023-05-03T11:02:39.320Z,50.875362
2023-05-03T11:03:39.277Z,50.875004
2023-05-03T11:04:39.308Z,50.875099
2023-05-03T11:05:41.019Z,50.874897
2023-05-03T11:06:39.259Z,50.875031
2023-05-03T11:07:39.199Z,50.875492
2023-05-03T11:08:39.192Z,50.875237
2023-05-03T11:09:39.226Z,50.875427
2023-05-03T11:10:39.185Z,50.875301
2023-05-03T11:11:39.143Z,50.875225
2023-05-03T11:12:39.154Z,50.875393
2023-05-03T11:13:39.230Z,50.875221
2023-05-03T11:14:39.140Z,50.875393
2023-05-03T11:15:39.130Z,50.875336
2023-05-03T11:16:39.177Z,50.875328
2023-05-03T11:17:39.156Z,50.875347
2023-05-03T11:18:39.129Z,50.875439
2023-05-03T11:19:39.049Z,50.875408
2023-05-03T11:20:40.057Z,50.875343
2023-05-03T11:21:39.040Z,50.875351
2023-05-03T11:22:39.073Z,50.875336
2023-05-03T11:23:39.105Z,50.875420
2023-05-03T11:24:39.029Z,50.875450
2023-05-03T11:25:39.016Z,50.875381
2023-05-03T11:26:39.016Z,50.875309
2023-05-03T11:27:39.054Z,50.875401
2023-05-03T11:28:38.992Z,50.875401
2023-05-03T11:29:39.039Z,50.875748
2023-05-03T11:30:38.993Z,50.875717
2023-05-03T11:31:39.080Z,50.875652
2023-05-03T11:32:39.065Z,50.875710
2023-05-03T11:33:39.062Z,50.875622
2023-05-03T11:34:38.965Z,50.875549
2023-05-03T11:35:38.955Z,50.875549
2023-05-03T11:36:38.946Z,50.875443
2023-05-03T11:37:38.914Z,50.875957
2023-05-03T11:38:39.011Z,50.875431
2023-05-03T11:39:38.939Z,50.875381
2023-05-03T11:40:38.909Z,50.875313
2023-05-03T11:41:38.932Z,50.875519
2023-05-03T11:42:38.878Z,50.875305
2023-05-03T11:43:38.874Z,50.875149
2023-05-03T11:44:38.872Z,50.875183
2023-05-03T11:45:38.915Z,50.875278
2023-05-03T11:46:39.049Z,50.875256
2023-05-03T11:47:38.959Z,50.875183
2023-05-03T11:48:38.939Z,50.876049
2023-05-03T11:49:38.775Z,50.875626
2023-05-03T11:50:38.785Z,50.875526
2023-05-03T11:51:38.778Z,50.875324
2023-05-03T11:52:38.765Z,50.875256
2023-05-03T11:53:38.770Z,50.875477
2023-05-03T11:54:38.773Z,50.875538
2023-05-03T11:55:38.717Z,50.875420
2023-05-03T11:56:38.743Z,50.875465
2023-05-03T11:57:38.723Z,50.875519
2023-05-03T11:58:38.727Z,50.875607
2023-05-03T11:59:38.720Z,50.875813
2023-05-03T12:00:38.684Z,50.876175
2023-05-03T12:01:38.811Z,50.875622
2023-05-03T12:02:38.780Z,50.876385
2023-05-03T12:03:38.785Z,50.876915
2023-05-03T12:04:39.141Z,50.876858
2023-05-03T12:05:39.387Z,50.876858
2023-05-03T12:06:39.909Z,50.876858
2023-05-03T12:07:38.803Z,50.876858
2023-05-03T12:08:41.519Z,50.875198
2023-05-03T12:09:40.356Z,50.875526
2023-05-03T12:10:38.828Z,50.875473
2023-05-03T12:11:39.834Z,50.875546
2023-05-03T12:12:43.543Z,50.875626
2023-05-03T12:13:41.198Z,50.875317
2023-05-03T12:14:39.239Z,50.875362
2023-05-03T12:15:40.610Z,50.875416
2023-05-03T13:37:04.919Z,50.875256
2023-05-03T13:38:04.901Z,50.875458
2023-05-03T13:39:04.878Z,50.875832
2023-05-03T13:40:05.179Z,50.875832
2023-05-03T13:41:04.862Z,50.875832
2023-05-03T13:42:04.838Z,50.875832
2023-05-03T13:43:04.853Z,50.875832
2023-05-03T13:44:04.833Z,50.875832
2023-05-03T13:45:04.795Z,50.875591
2023-05-03T13:46:04.805Z,50.875820
2023-05-03T13:47:04.775Z,50.875668
2023-05-03T13:48:18.622Z,50.875645
2023-05-03T13:49:06.828Z,50.875221
2023-05-03T13:50:05.116Z,50.875484
2023-05-03T13:51:04.749Z,50.875423
2023-05-03T13:52:04.757Z,50.875336
2023-05-03T13:53:04.727Z,50.875801
2023-05-03T13:54:04.730Z,50.875942
2023-05-03T13:55:04.849Z,50.875874
2023-05-03T13:56:04.768Z,50.875385
2023-05-03T13:57:04.713Z,50.875637
2023-05-03T13:58:04.680Z,50.875401
2023-05-03T13:59:04.679Z,50.875389
2023-05-03T14:00:04.891Z,50.876137
2023-05-03T14:01:04.693Z,50.875919
2023-05-03T14:02:04.698Z,50.876003
2023-05-03T14:03:04.809Z,50.876480
2023-05-03T14:04:04.892Z,50.876282
2023-05-03T14:05:04.658Z,50.875702
2023-05-03T14:06:04.610Z,50.875702
2023-05-03T14:07:04.593Z,50.875458
2023-05-03T14:08:05.604Z,50.875404
2023-05-03T14:09:04.570Z,50.876102
2023-05-03T14:10:04.721Z,50.876053
2023-05-03T14:11:06.262Z,50.875809
2023-05-03T14:12:05.534Z,50.875698
2023-05-03T14:13:04.610Z,50.875504
2023-05-03T16:54:06.021Z,50.876575
2023-05-03T16:55:05.986Z,50.876518
2023-05-03T16:56:05.973Z,50.876675
2023-05-03T16:57:05.967Z,50.876465
2023-05-03T16:58:05.964Z,50.876465
2023-05-03T16:59:05.964Z,50.876465
2023-05-03T17:00:06.139Z,50.876755